Time;durP1;ratioP1;P1;durP2;ratioP2;P2;SDS_P1;SDS_P2;PMS_P1;PMS_P2;Temp;Humidity;BMP_temperature;BMP_pressure;BME280_temperature;BME280_humidity;BME280_pressure;Samples;Min_cycle;Max_cycle;Signal;HPM_P1;HPM_P2
2022/08/25 00:00:31;;;;;;;6.65;4.47;;;23.30;95.70;;;;;;3059488;19;20627;-73
2022/08/25 00:01:35;;;;;;;7.65;4.18;;;23.10;95.60;;;;;;3058983;19;20366;-73
2022/08/25 00:02:40;;;;;;;6.63;4.30;;;23.10;95.60;;;;;;3059284;19;20011;-72
2022/08/25 00:03:42;;;;;;;4.70;3.97;;;23.30;95.60;;;;;;3059047;19;20022;-73
2022/08/25 00:04:46;;;;;;;5.97;4.22;;;23.10;95.70;;;;;;3059111;19;20032;-73
2022/08/25 00:05:47;;;;;;;11.35;4.40;;;23.10;95.70;;;;;;3059012;19;20015;-73
2022/08/25 00:06:54;;;;;;;9.90;4.00;;;23.00;95.70;;;;;;3059330;19;20003;-73
2022/08/25 00:07:58;;;;;;;4.75;4.05;;;23.00;95.80;;;;;;3059042;19;20025;-72
2022/08/25 00:09:02;;;;;;;6.22;3.83;;;22.90;95.90;;;;;;3059419;19;20007;-72
2022/08/25 00:10:05;;;;;;;5.50;4.10;;;23.30;95.90;;;;;;3058948;19;20034;-73
2022/08/25 00:11:12;;;;;;;6.47;4.30;;;23.20;95.80;;;;;;3059277;19;20010;-73
2022/08/25 00:12:13;;;;;;;7.38;4.13;;;22.90;95.90;;;;;;3058977;19;20504;-73
2022/08/25 00:13:17;;;;;;;6.07;4.13;;;23.00;95.80;;;;;;3060541;19;20015;-73
2022/08/25 00:14:22;;;;;;;6.18;4.32;;;23.10;95.80;;;;;;3058719;19;20025;-73
2022/08/25 00:15:27;;;;;;;9.98;4.18;;;23.10;95.90;;;;;;3058770;19;20011;-72
2022/08/25 00:16:30;;;;;;;5.82;4.13;;;22.90;95.80;;;;;;3058840;19;20074;-74
2022/08/25 00:17:34;;;;;;;5.07;4.10;;;23.10;95.90;;;;;;3058505;19;20013;-73
2022/08/25 00:18:36;;;;;;;6.57;4.05;;;23.00;95.80;;;;;;3058822;19;20027;-73
2022/08/25 00:19:40;;;;;;;9.23;4.07;;;23.00;95.70;;;;;;3058575;19;20375;-73
2022/08/25 00:20:41;;;;;;;8.35;4.75;;;23.00;95.70;;;;;;3058774;19;20039;-73
2022/08/25 00:21:45;;;;;;;5.80;4.28;;;22.90;95.70;;;;;;3058782;19;20014;-72
2022/08/25 00:22:48;;;;;;;6.68;4.40;;;23.00;95.90;;;;;;3058798;19;20040;-73
2022/08/25 00:23:55;;;;;;;8.27;4.25;;;22.80;95.90;;;;;;3059029;19;20065;-73
2022/08/25 00:24:56;;;;;;;7.20;4.50;;;22.90;95.90;;;;;;3058803;19;20023;-73
2022/08/25 00:26:00;;;;;;;9.80;3.95;;;22.80;95.90;;;;;;3059098;19;20002;-73
2022/08/25 00:27:05;;;;;;;7.97;4.75;;;22.80;96.00;;;;;;3056570;19;20013;-72
2022/08/25 00:28:06;;;;;;;7.70;4.60;;;22.80;96.00;;;;;;3058853;19;20007;-73
2022/08/25 00:29:11;;;;;;;5.65;4.30;;;22.80;95.90;;;;;;3058724;19;20087;-72
2022/08/25 00:30:15;;;;;;;6.97;4.40;;;22.80;95.80;;;;;;3058710;19;20033;-73
2022/08/25 00:31:22;;;;;;;6.15;4.65;;;22.70;95.80;;;;;;3058695;19;20011;-72
2022/08/25 00:32:24;;;;;;;5.68;3.97;;;22.70;95.80;;;;;;3058848;19;20016;-73
2022/08/25 00:33:29;;;;;;;7.40;4.25;;;22.50;95.80;;;;;;3058675;19;20460;-73
2022/08/25 00:34:34;;;;;;;5.78;4.40;;;22.70;95.90;;;;;;3058686;19;20002;-73
2022/08/25 00:35:40;;;;;;;6.78;4.25;;;22.50;96.00;;;;;;3058697;19;20010;-72
2022/08/25 00:36:42;;;;;;;6.70;4.53;;;22.70;96.00;;;;;;3058573;19;20011;-74
2022/08/25 00:37:46;;;;;;;8.93;4.07;;;22.60;95.90;;;;;;3058067;19;20013;-73
2022/08/25 00:38:51;;;;;;;6.40;4.10;;;22.60;95.90;;;;;;3058509;19;20014;-72
2022/08/25 00:39:55;;;;;;;6.53;4.30;;;22.50;96.30;;;;;;3058900;19;20002;-73
2022/08/25 00:41:06;;;;;;;5.55;4.28;;;22.60;96.00;;;;;;3058456;19;20066;-72
2022/08/25 00:42:12;;;;;;;18.88;4.53;;;22.60;95.90;;;;;;3058845;19;20042;-73
2022/08/25 00:43:13;;;;;;;8.85;4.55;;;22.70;96.10;;;;;;3058379;19;20070;-73
2022/08/25 00:44:18;;;;;;;5.65;4.13;;;22.40;96.10;;;;;;3058576;19;20085;-72
2022/08/25 00:45:22;;;;;;;7.20;4.50;;;22.70;96.10;;;;;;3058552;19;20024;-73
2022/08/25 00:46:27;;;;;;;6.30;4.03;;;22.40;96.40;;;;;;3058545;19;20165;-72
2022/08/25 00:47:29;;;;;;;6.10;3.75;;;22.40;96.10;;;;;;3058347;19;20021;-72
2022/08/25 00:48:33;;;;;;;6.55;4.38;;;24.50;96.40;;;;;;3058687;19;20013;-72
2022/08/25 00:49:38;;;;;;;5.47;3.90;;;22.50;95.80;;;;;;3058030;19;20010;-73
2022/08/25 00:50:42;;;;;;;9.95;4.30;;;22.30;95.80;;;;;;3058552;19;20006;-72
2022/08/25 00:51:47;;;;;;;6.50;3.90;;;22.60;95.90;;;;;;3058433;19;20014;-73
2022/08/25 00:52:55;;;;;;;8.10;4.07;;;22.40;96.00;;;;;;3058351;19;20352;-73
2022/08/25 00:53:59;;;;;;;8.23;3.83;;;22.60;96.00;;;;;;3058504;19;20019;-73
2022/08/25 00:55:08;;;;;;;7.70;3.92;;;22.40;96.00;;;;;;3058530;19;20015;-73
2022/08/25 00:56:10;;;;;;;7.47;4.10;;;22.40;95.90;;;;;;3058464;19;20479;-73
2022/08/25 00:57:16;;;;;;;7.03;4.28;;;22.40;95.70;;;;;;3058573;19;20172;-73
2022/08/25 00:58:21;;;;;;;7.35;4.30;;;22.40;95.80;;;;;;3058618;19;20010;-73
2022/08/25 00:59:27;;;;;;;5.82;3.90;;;22.40;95.90;;;;;;3058372;19;20021;-73
2022/08/25 01:00:31;;;;;;;7.50;4.20;;;22.60;95.90;;;;;;3058371;19;20006;-73
2022/08/25 01:01:35;;;;;;;8.82;4.15;;;22.50;95.90;;;;;;3058467;19;20010;-73
2022/08/25 01:02:37;;;;;;;5.63;4.10;;;22.30;96.10;;;;;;3058493;19;20006;-73
2022/08/25 01:03:40;;;;;;;;;;;22.30;96.10;;;;;;3058912;19;20016;-73
2022/08/25 01:04:43;;;;;;;7.60;4.53;;;22.40;96.20;;;;;;3058307;19;19918;-73
2022/08/25 01:05:48;;;;;;;6.90;3.75;;;22.20;96.30;;;;;;3058276;19;20373;-72
2022/08/25 01:06:50;;;;;;;5.20;4.43;;;22.30;96.30;;;;;;3058350;19;20105;-73
2022/08/25 01:07:55;;;;;;;6.07;4.05;;;22.30;96.20;;;;;;3058353;19;20015;-72
2022/08/25 01:08:59;;;;;;;5.35;4.25;;;22.30;96.30;;;;;;3058358;19;20077;-73
2022/08/25 01:10:06;;;;;;;8.15;3.90;;;22.20;96.10;;;;;;3058044;19;20014;-72
2022/08/25 01:11:09;;;;;;;8.85;4.70;;;22.20;96.10;;;;;;3058378;19;20358;-73
2022/08/25 01:12:13;;;;;;;5.55;4.00;;;22.30;96.40;;;;;;3059304;19;20086;-73
2022/08/25 01:13:18;;;;;;;5.97;4.15;;;22.10;96.40;;;;;;3058148;19;20014;-73
2022/08/25 01:14:24;;;;;;;6.88;4.10;;;22.20;96.20;;;;;;3058146;19;20007;-73
2022/08/25 01:15:26;;;;;;;9.65;4.22;;;22.00;96.10;;;;;;3058187;19;20018;-72
2022/08/25 01:16:31;;;;;;;9.30;4.32;;;22.30;96.30;;;;;;3058142;19;20007;-73
2022/08/25 01:17:38;;;;;;;7.97;3.90;;;22.00;96.10;;;;;;3058048;19;20009;-73
2022/08/25 01:18:49;;;;;;;8.02;4.10;;;22.20;96.30;;;;;;3057934;19;20043;-73
2022/08/25 01:19:54;;;;;;;5.97;3.72;;;22.20;96.40;;;;;;3057223;19;20035;-73
2022/08/25 01:21:01;;;;;;;6.13;4.38;;;22.00;96.30;;;;;;3058033;19;20010;-73
2022/08/25 01:22:04;;;;;;;5.43;3.83;;;22.10;96.30;;;;;;3058399;19;20009;-72
2022/08/25 01:23:08;;;;;;;8.25;4.45;;;22.10;96.20;;;;;;3057992;19;20010;-73
2022/08/25 01:24:15;;;;;;;5.97;4.05;;;22.10;96.10;;;;;;3058115;19;20356;-73
2022/08/25 01:25:29;;;;;;;6.47;4.00;;;22.10;96.20;;;;;;3057931;19;20015;-73
2022/08/25 01:26:32;;;;;;;7.78;4.40;;;22.10;96.30;;;;;;3058000;19;20535;-73
2022/08/25 01:27:36;;;;;;;10.30;4.97;;;22.00;96.30;;;;;;3057504;19;20002;-72
2022/08/25 01:29:19;;;;;;;7.45;4.43;;;22.00;96.20;;;;;;3057764;19;20007;-72
2022/08/25 01:30:04;;;;;;;7.35;4.20;;;22.00;96.30;;;;;;3057915;19;20365;-73
2022/08/25 01:31:05;;;;;;;9.13;4.30;;;22.00;96.30;;;;;;3057919;19;20014;-73
2022/08/25 01:32:12;;;;;;;8.13;4.20;;;22.00;96.40;;;;;;3058192;19;20350;-73
2022/08/25 01:33:13;;;;;;;5.70;4.18;;;21.90;96.40;;;;;;3057998;19;20017;-73
2022/08/25 01:34:18;;;;;;;10.45;4.47;;;21.90;96.40;;;;;;3058015;19;20025;-73
2022/08/25 01:35:19;;;;;;;6.32;4.18;;;22.10;96.50;;;;;;3058002;19;20011;-73
2022/08/25 01:36:28;;;;;;;10.27;4.40;;;22.00;96.60;;;;;;3058274;19;20485;-73
2022/08/25 01:37:33;;;;;;;8.95;4.43;;;21.90;96.60;;;;;;3057687;19;20018;-73
2022/08/25 01:38:37;;;;;;;8.43;4.32;;;21.90;96.50;;;;;;3060281;19;20103;-72
2022/08/25 01:39:38;;;;;;;6.47;4.18;;;21.70;96.50;;;;;;3061069;19;20010;-72
2022/08/25 01:40:43;;;;;;;7.47;4.43;;;21.80;96.50;;;;;;3061072;19;20082;-73
2022/08/25 01:41:53;;;;;;;7.10;4.30;;;21.80;96.50;;;;;;3060916;19;20018;-73
2022/08/25 01:43:08;;;;;;;8.02;4.53;;;22.00;96.70;;;;;;3061330;19;20006;-73
2022/08/25 01:44:09;;;;;;;6.90;4.05;;;21.90;96.70;;;;;;3061039;19;20014;-73
2022/08/25 01:45:13;;;;;;;5.93;4.03;;;21.70;96.60;;;;;;3060987;19;20011;-73
2022/08/25 01:46:15;;;;;;;8.50;4.53;;;21.80;96.70;;;;;;3061219;19;20022;-74
2022/08/25 01:47:18;;;;;;;6.40;3.97;;;21.80;96.60;;;;;;3061007;19;19999;-73
2022/08/25 01:48:20;;;;;;;7.22;4.28;;;21.70;96.70;;;;;;3061142;19;20487;-73
2022/08/25 01:49:24;;;;;;;8.70;4.65;;;21.90;97.00;;;;;;3060795;19;20006;-72
2022/08/25 01:50:26;;;;;;;5.95;4.28;;;22.00;96.60;;;;;;3061185;19;20002;-73
2022/08/25 01:51:40;;;;;;;7.70;4.30;;;21.80;96.60;;;;;;3061060;19;20002;-73
2022/08/25 01:52:49;;;;;;;7.65;4.50;;;21.90;96.80;;;;;;3061046;19;19999;-73
2022/08/25 01:53:53;;;;;;;5.00;3.70;;;21.70;96.90;;;;;;3060994;19;20536;-73
2022/08/25 01:54:54;;;;;;;7.32;4.40;;;21.80;96.90;;;;;;3061295;19;20022;-73
2022/08/25 01:56:04;;;;;;;5.88;4.15;;;21.50;96.80;;;;;;3061002;19;20015;-73
2022/08/25 01:57:05;;;;;;;6.80;3.80;;;21.60;96.80;;;;;;3060963;19;20092;-73
2022/08/25 01:58:09;;;;;;;7.82;4.20;;;21.60;96.90;;;;;;3059090;19;20014;-73
2022/08/25 01:59:13;;;;;;;5.88;3.70;;;21.60;96.90;;;;;;3060409;19;20014;-73
2022/08/25 02:00:19;;;;;;;8.82;4.70;;;21.60;97.00;;;;;;3060808;19;20040;-72
2022/08/25 02:01:22;;;;;;;8.45;4.47;;;21.70;97.10;;;;;;3060908;19;20032;-72
2022/08/25 02:02:26;;;;;;;8.80;4.75;;;21.60;97.00;;;;;;3060763;19;20449;-74
2022/08/25 02:03:28;;;;;;;6.10;4.20;;;21.70;97.00;;;;;;3060796;19;20032;-73
2022/08/25 02:04:32;;;;;;;10.82;4.50;;;21.60;97.00;;;;;;3060633;19;20019;-72
2022/08/25 02:05:33;;;;;;;6.78;4.45;;;21.50;96.90;;;;;;3060977;19;20018;-73
2022/08/25 02:06:41;;;;;;;7.78;4.95;;;21.60;97.00;;;;;;3060628;19;20081;-73
2022/08/25 02:07:43;;;;;;;5.65;4.15;;;21.70;97.20;;;;;;3060703;19;20457;-72
2022/08/25 02:08:47;;;;;;;9.45;4.82;;;21.60;97.20;;;;;;3060701;19;20344;-73
2022/08/25 02:09:49;;;;;;;6.25;4.18;;;21.50;97.20;;;;;;3060962;19;20036;-73
2022/08/25 02:10:54;;;;;;;8.93;4.50;;;21.50;97.20;;;;;;3060597;19;20078;-73
2022/08/25 02:11:56;;;;;;;7.40;4.32;;;21.50;97.20;;;;;;3060748;19;20006;-73
2022/08/25 02:12:59;;;;;;;6.65;4.70;;;21.40;97.20;;;;;;3060616;19;20070;-73
2022/08/25 02:14:01;;;;;;;8.82;4.57;;;21.50;97.30;;;;;;3060819;19;20104;-73
2022/08/25 02:15:06;;;;;;;5.60;4.18;;;21.40;97.30;;;;;;3060587;19;20038;-73
2022/08/25 02:16:13;;;;;;;10.55;4.35;;;21.60;97.40;;;;;;3059902;19;20476;-73
2022/08/25 02:17:17;;;;;;;6.90;4.50;;;21.40;97.40;;;;;;3060443;19;20011;-72
2022/08/25 02:18:20;;;;;;;5.60;4.25;;;21.40;97.40;;;;;;3059840;19;19998;-73
2022/08/25 02:19:25;;;;;;;6.45;4.55;;;21.40;97.50;;;;;;3059997;19;20010;-73
2022/08/25 02:20:27;;;;;;;9.45;4.88;;;21.20;97.80;;;;;;3060777;19;20023;-73
2022/08/25 02:21:31;;;;;;;;;;;21.40;97.60;;;;;;3061116;19;20457;-73
2022/08/25 02:22:35;;;;;;;7.32;4.45;;;21.40;97.80;;;;;;3060744;19;20259;-73
2022/08/25 02:23:39;;;;;;;8.30;4.45;;;21.20;97.60;;;;;;3060555;19;20010;-73
2022/08/25 02:24:40;;;;;;;7.68;4.40;;;21.30;97.90;;;;;;3060487;19;20002;-72
2022/08/25 02:25:44;;;;;;;11.35;4.90;;;21.10;97.70;;;;;;3060432;19;20011;-73
2022/08/25 02:26:45;;;;;;;6.35;4.47;;;21.30;97.80;;;;;;3060730;19;20003;-73
2022/08/25 02:27:49;;;;;;;9.02;4.68;;;21.20;97.80;;;;;;3059330;19;20379;-73
2022/08/25 02:28:51;;;;;;;7.28;4.60;;;21.30;97.80;;;;;;3060513;19;20066;-73
2022/08/25 02:29:55;;;;;;;7.45;4.53;;;21.20;97.90;;;;;;3060447;19;20003;-73
2022/08/25 02:30:57;;;;;;;7.97;4.85;;;21.30;98.00;;;;;;3060523;19;20010;-73
2022/08/25 02:32:01;;;;;;;7.78;4.70;;;21.20;97.90;;;;;;3060393;19;20031;-73
2022/08/25 02:33:03;;;;;;;6.85;4.72;;;21.10;97.90;;;;;;3060769;19;20010;-73
2022/08/25 02:34:07;;;;;;;;;;;21.30;97.90;;;;;;3060965;19;20015;-73
2022/08/25 02:35:09;;;;;;;7.30;4.63;;;21.00;97.90;;;;;;3060623;19;19915;-72
2022/08/25 02:36:12;;;;;;;;;;;21.10;97.90;;;;;;3061224;19;20010;-73
2022/08/25 02:37:14;;;;;;;9.13;5.28;;;21.20;98.10;;;;;;3060356;19;19939;-72
2022/08/25 02:38:20;;;;;;;10.75;5.40;;;21.20;98.00;;;;;;3059886;19;20003;-73
2022/08/25 02:39:22;;;;;;;9.70;5.15;;;21.10;98.00;;;;;;3060402;19;19998;-73
2022/08/25 02:40:26;;;;;;;10.10;5.43;;;21.10;98.00;;;;;;3060387;19;20007;-73
2022/08/25 02:41:28;;;;;;;6.80;4.75;;;21.20;98.40;;;;;;3060179;19;20022;-73
2022/08/25 02:42:32;;;;;;;5.75;4.57;;;20.40;98.10;;;;;;3060547;19;20015;-73
2022/08/25 02:43:34;;;;;;;7.35;5.05;;;21.20;98.30;;;;;;3060160;19;20338;-73
2022/08/25 02:44:37;;;;;;;7.18;4.40;;;21.10;98.30;;;;;;3060370;19;20416;-73
2022/08/25 02:45:39;;;;;;;7.32;5.00;;;21.00;98.40;;;;;;3060180;19;20039;-73
2022/08/25 02:46:43;;;;;;;6.28;5.32;;;21.00;98.40;;;;;;3060276;19;20010;-73
2022/08/25 02:47:45;;;;;;;9.68;4.93;;;20.90;98.50;;;;;;3060289;19;20467;-72
2022/08/25 02:48:51;;;;;;;6.80;4.90;;;20.90;98.60;;;;;;3060272;19;20014;-72
2022/08/25 02:49:53;;;;;;;7.43;4.50;;;21.10;98.70;;;;;;3058504;19;19999;-73
2022/08/25 02:51:00;;;;;;;9.25;5.07;;;21.10;98.70;;;;;;3060448;19;20484;-72
2022/08/25 02:52:02;;;;;;;8.00;4.95;;;20.80;98.70;;;;;;3060227;19;20014;-73
2022/08/25 02:53:06;;;;;;;7.65;4.72;;;20.90;98.70;;;;;;3060644;19;20014;-73
2022/08/25 02:54:10;;;;;;;8.43;5.00;;;20.90;98.80;;;;;;3061020;19;20013;-73
2022/08/25 02:55:15;;;;;;;7.13;4.90;;;21.10;98.90;;;;;;3061260;19;20014;-72
2022/08/25 02:56:17;;;;;;;7.43;4.55;;;20.90;98.80;;;;;;3060951;19;19999;-72
2022/08/25 02:57:21;;;;;;;10.13;5.15;;;21.00;98.70;;;;;;3061790;19;20098;-72
2022/08/25 02:58:23;;;;;;;8.18;5.32;;;20.90;98.60;;;;;;3061983;19;20010;-72
2022/08/25 02:59:26;;;;;;;;;;;20.90;98.50;;;;;;3062471;19;20006;-72
2022/08/25 03:00:28;;;;;;;8.07;4.50;;;20.80;98.60;;;;;;3061166;19;19911;-74
2022/08/25 03:01:32;;;;;;;9.68;4.70;;;20.90;98.70;;;;;;3063164;19;20384;-73
2022/08/25 03:02:33;;;;;;;7.80;4.90;;;20.80;98.60;;;;;;3064890;19;20055;-73
2022/08/25 03:03:38;;;;;;;10.75;5.45;;;21.00;98.70;;;;;;3065579;19;20044;-72
2022/08/25 03:04:39;;;;;;;6.32;5.05;;;20.90;98.70;;;;;;3064832;19;20015;-73
2022/08/25 03:05:43;;;;;;;8.63;4.88;;;20.90;98.60;;;;;;3062863;19;20036;-72
2022/08/25 03:06:44;;;;;;;12.82;5.10;;;20.90;98.60;;;;;;3061721;19;20014;-73
2022/08/25 03:07:49;;;;;;;9.60;5.57;;;20.80;98.60;;;;;;3061012;19;20011;-72
2022/08/25 03:08:51;;;;;;;8.23;5.20;;;21.00;98.50;;;;;;3060754;19;20014;-73
2022/08/25 03:09:58;;;;;;;10.27;5.60;;;20.90;98.60;;;;;;3060119;19;20035;-73
2022/08/25 03:10:59;;;;;;;9.70;4.95;;;20.80;98.70;;;;;;3059940;19;20007;-73
2022/08/25 03:12:04;;;;;;;8.40;5.43;;;20.80;98.60;;;;;;3059961;19;20086;-72
2022/08/25 03:13:06;;;;;;;8.93;5.30;;;20.70;98.70;;;;;;3059893;19;20381;-73
2022/08/25 03:14:11;;;;;;;10.55;5.72;;;20.90;98.80;;;;;;3060167;19;20024;-73
2022/08/25 03:15:15;;;;;;;7.93;5.65;;;20.90;98.70;;;;;;3059787;19;20360;-72
2022/08/25 03:16:20;;;;;;;8.07;5.18;;;20.90;98.80;;;;;;3059229;19;20014;-73
2022/08/25 03:17:21;;;;;;;10.07;5.50;;;20.90;98.80;;;;;;3059644;19;20479;-73
2022/08/25 03:18:25;;;;;;;10.60;5.25;;;20.80;98.70;;;;;;3059559;19;20006;-73
2022/08/25 03:19:26;;;;;;;7.82;5.35;;;20.80;98.70;;;;;;3059283;19;20030;-73
2022/08/25 03:20:30;;;;;;;9.55;5.35;;;20.80;98.70;;;;;;3060018;19;21231;-73
2022/08/25 03:21:31;;;;;;;8.77;5.43;;;20.90;98.70;;;;;;3059712;19;20010;-73
2022/08/25 03:22:35;;;;;;;8.18;5.50;;;21.00;98.70;;;;;;3059778;19;20006;-72
2022/08/25 03:23:37;;;;;;;6.93;5.15;;;20.90;98.80;;;;;;3059829;19;20014;-73
2022/08/25 03:24:41;;;;;;;12.00;5.97;;;20.80;98.80;;;;;;3059862;19;20070;-73
2022/08/25 03:27:01;;;;;;;9.20;5.63;;;20.80;98.80;;;;;;3059744;19;20006;-73
2022/08/25 03:28:03;;;;;;;9.73;5.38;;;20.70;99.00;;;;;;3059555;19;20400;-73
2022/08/25 03:29:07;;;;;;;11.52;5.88;;;20.90;99.10;;;;;;3059780;19;20011;-73
2022/08/25 03:30:10;;;;;;;7.18;5.13;;;20.70;99.10;;;;;;3059586;19;20010;-72
2022/08/25 03:31:14;;;;;;;9.70;4.93;;;20.80;99.10;;;;;;3059685;19;20007;-74
2022/08/25 03:32:18;;;;;;;8.52;5.30;;;20.70;99.20;;;;;;3059540;19;20082;-73
2022/08/25 03:33:22;;;;;;;9.05;5.40;;;20.50;99.20;;;;;;3059616;19;20015;-73
2022/08/25 03:34:27;;;;;;;8.95;5.20;;;20.60;99.30;;;;;;3059536;19;20018;-73
2022/08/25 03:35:28;;;;;;;9.63;5.72;;;20.50;99.30;;;;;;3059890;19;20483;-72
2022/08/25 03:36:32;;;;;;;;;;;20.50;99.30;;;;;;3060363;19;20017;-72
2022/08/25 03:37:34;;;;;;;8.02;5.72;;;20.80;99.60;;;;;;3059889;19;19919;-73
2022/08/25 03:38:38;;;;;;;;;;;20.50;99.50;;;;;;3059854;19;20007;-73
2022/08/25 03:39:42;;;;;;;8.40;5.60;;;20.40;99.50;;;;;;3059540;19;19926;-73
2022/08/25 03:40:46;;;;;;;9.93;5.72;;;20.40;99.80;;;;;;3059388;19;20011;-73
2022/08/25 03:41:51;;;;;;;8.18;5.22;;;20.40;99.60;;;;;;3059631;19;19998;-73
2022/08/25 03:42:53;;;;;;;9.30;5.80;;;20.40;99.60;;;;;;3059576;19;20559;-72
2022/08/25 03:43:58;;;;;;;8.63;5.60;;;20.40;99.50;;;;;;3058456;19;20495;-73
2022/08/25 03:45:01;;;;;;;10.05;5.63;;;20.70;99.60;;;;;;3058596;19;20567;-72
2022/08/25 03:46:05;;;;;;;8.80;5.75;;;20.60;99.70;;;;;;3058792;19;20006;-73
2022/08/25 03:47:06;;;;;;;9.23;6.10;;;20.50;99.60;;;;;;3059544;19;20031;-73
2022/08/25 03:48:11;;;;;;;8.77;5.95;;;20.70;99.70;;;;;;3059277;19;20413;-72
2022/08/25 03:49:14;;;;;;;9.25;6.05;;;20.40;99.70;;;;;;3059094;19;20055;-73
2022/08/25 03:50:20;;;;;;;9.35;6.00;;;20.50;99.70;;;;;;3059323;19;20011;-73
2022/08/25 03:51:23;;;;;;;8.90;5.65;;;20.50;99.80;;;;;;3059330;19;20018;-72
2022/08/25 03:52:27;;;;;;;9.23;5.97;;;20.40;99.90;;;;;;3059615;19;20020;-73
2022/08/25 03:53:29;;;;;;;9.07;5.50;;;20.40;99.80;;;;;;3059316;19;20014;-72
2022/08/25 03:54:33;;;;;;;10.05;6.32;;;20.30;99.90;;;;;;3059345;19;20596;-73
2022/08/25 03:55:34;;;;;;;8.23;5.43;;;20.30;99.80;;;;;;3059498;19;20013;-72
2022/08/25 03:56:41;;;;;;;9.70;5.85;;;20.30;99.80;;;;;;3059262;19;20031;-72
2022/08/25 03:57:42;;;;;;;9.57;5.60;;;20.20;99.90;;;;;;3059571;19;20046;-72
2022/08/25 03:58:46;;;;;;;10.43;6.20;;;20.40;99.90;;;;;;3058785;19;20007;-72
2022/08/25 03:59:47;;;;;;;10.27;6.28;;;20.50;99.90;;;;;;3059290;19;20015;-72
2022/08/25 04:00:52;;;;;;;7.65;5.70;;;20.30;99.90;;;;;;3059234;19;20019;-72
2022/08/25 04:01:53;;;;;;;9.98;5.70;;;20.20;99.90;;;;;;3056835;19;20011;-73
2022/08/25 04:02:57;;;;;;;9.90;5.70;;;20.40;99.90;;;;;;3059127;19;19998;-72
2022/08/25 04:03:58;;;;;;;7.22;5.65;;;20.50;99.90;;;;;;3059217;19;20002;-72
2022/08/25 04:05:02;;;;;;;10.65;6.18;;;20.20;99.90;;;;;;3059102;19;20006;-72
2022/08/25 04:06:06;;;;;;;11.80;5.45;;;20.20;99.90;;;;;;3058321;19;20019;-72
2022/08/25 04:07:09;;;;;;;8.45;5.85;;;20.10;99.90;;;;;;3058193;19;20022;-72
2022/08/25 04:08:11;;;;;;;9.93;5.95;;;20.30;99.90;;;;;;3059278;19;21439;-72
2022/08/25 04:09:15;;;;;;;11.15;5.85;;;20.20;99.90;;;;;;3059602;19;20039;-72
2022/08/25 04:10:17;;;;;;;9.20;5.93;;;20.30;99.90;;;;;;3058992;19;20359;-72
2022/08/25 04:11:24;;;;;;;12.13;6.10;;;20.30;99.90;;;;;;3059159;19;20018;-72
2022/08/25 04:12:28;;;;;;;7.97;5.45;;;20.30;99.90;;;;;;3059122;19;20003;-74
2022/08/25 04:13:32;;;;;;;11.30;6.22;;;20.30;99.90;;;;;;3059154;19;20025;-72
2022/08/25 04:14:33;;;;;;;11.82;5.72;;;20.30;99.90;;;;;;3059053;19;20366;-73
2022/08/25 04:15:38;;;;;;;11.05;6.03;;;20.30;99.90;;;;;;3058658;19;20011;-73
2022/08/25 04:16:39;;;;;;;9.57;6.25;;;20.20;99.90;;;;;;3059053;19;20023;-73
2022/08/25 04:17:43;;;;;;;9.15;6.00;;;20.30;99.90;;;;;;3058936;19;20014;-73
2022/08/25 04:18:46;;;;;;;10.23;6.28;;;20.20;99.90;;;;;;3058845;19;20003;-72
2022/08/25 04:19:50;;;;;;;9.98;5.85;;;20.30;99.90;;;;;;3058353;19;20026;-72
2022/08/25 04:21:01;;;;;;;10.23;6.85;;;20.20;99.90;;;;;;3058934;19;20413;-72
2022/08/25 04:22:05;;;;;;;10.00;5.82;;;20.30;99.90;;;;;;3058879;19;20006;-72
2022/08/25 04:23:07;;;;;;;10.40;5.90;;;20.30;99.90;;;;;;3058967;19;20031;-73
2022/08/25 04:24:13;;;;;;;11.27;7.00;;;20.30;99.90;;;;;;3058917;19;20043;-72
2022/08/25 04:25:14;;;;;;;10.38;6.20;;;20.20;99.90;;;;;;3059155;19;20010;-73
2022/08/25 04:26:21;;;;;;;8.32;6.10;;;20.20;99.90;;;;;;3058659;19;20365;-74
2022/08/25 04:27:22;;;;;;;10.27;6.68;;;20.10;99.90;;;;;;3058627;19;20039;-73
2022/08/25 04:28:29;;;;;;;9.75;6.10;;;20.20;99.90;;;;;;3058872;19;20559;-74
2022/08/25 04:29:31;;;;;;;10.98;6.65;;;20.00;99.90;;;;;;3058829;19;20015;-71
2022/08/25 04:30:34;;;;;;;;;;;20.10;99.90;;;;;;3059360;19;20509;-74
2022/08/25 04:31:39;;;;;;;10.65;6.68;;;19.90;99.90;;;;;;3058856;19;19918;-73
2022/08/25 04:32:43;;;;;;;9.95;6.63;;;20.10;99.90;;;;;;3058679;19;20021;-71
2022/08/25 04:33:45;;;;;;;11.68;6.80;;;20.10;99.90;;;;;;3058780;19;20096;-74
2022/08/25 04:34:49;;;;;;;9.60;6.28;;;20.10;99.90;;;;;;3058651;19;20027;-74
2022/08/25 04:35:50;;;;;;;11.65;5.78;;;20.10;99.90;;;;;;3058971;19;20019;-71
2022/08/25 04:36:54;;;;;;;9.68;6.38;;;20.20;99.90;;;;;;3058598;19;20014;-72
2022/08/25 04:37:56;;;;;;;8.73;6.57;;;20.10;99.90;;;;;;3058978;19;20021;-71
2022/08/25 04:39:00;;;;;;;9.70;5.95;;;20.00;99.90;;;;;;3058534;19;20014;-71
2022/08/25 04:40:01;;;;;;;11.25;6.45;;;19.90;99.90;;;;;;3058622;19;20377;-72
2022/08/25 04:41:06;;;;;;;;;;;20.00;99.90;;;;;;3059181;19;20370;-72
2022/08/25 04:42:07;;;;;;;10.00;6.70;;;20.00;99.90;;;;;;3058650;19;19918;-72
2022/08/25 04:43:12;;;;;;;14.30;7.10;;;20.00;99.90;;;;;;3058707;19;20027;-72
2022/08/25 04:44:16;;;;;;;11.52;6.32;;;19.80;99.90;;;;;;3058726;19;20002;-72
2022/08/25 04:45:20;;;;;;;9.57;6.63;;;20.10;99.90;;;;;;3058787;19;20772;-72
2022/08/25 04:46:23;;;;;;;9.38;6.03;;;20.00;99.90;;;;;;3058752;19;20018;-72
2022/08/25 04:47:27;;;;;;;9.45;6.32;;;20.10;99.90;;;;;;3058543;19;20014;-72
2022/08/25 04:48:29;;;;;;;10.57;6.68;;;20.10;99.90;;;;;;3058575;19;20006;-72
2022/08/25 04:49:33;;;;;;;9.40;6.32;;;20.10;99.90;;;;;;3058311;19;20367;-72
2022/08/25 04:50:37;;;;;;;10.45;6.68;;;19.90;99.90;;;;;;3058551;19;20374;-72
2022/08/25 04:51:43;;;;;;;10.80;6.85;;;20.10;99.90;;;;;;3058365;19;20015;-71
2022/08/25 04:52:44;;;;;;;9.90;6.35;;;20.10;99.90;;;;;;3058453;19;20018;-72
2022/08/25 04:53:48;;;;;;;9.63;6.32;;;20.00;99.90;;;;;;3058490;19;20026;-72
2022/08/25 04:54:50;;;;;;;11.15;6.75;;;20.10;99.90;;;;;;3058361;19;20006;-72
2022/08/25 04:55:54;;;;;;;11.93;7.05;;;20.00;99.90;;;;;;3058709;19;20014;-72
2022/08/25 04:56:58;;;;;;;13.02;7.18;;;20.10;99.90;;;;;;3058544;19;20010;-72
2022/08/25 04:57:59;;;;;;;11.73;6.45;;;20.10;99.90;;;;;;3058637;19;19998;-72
2022/08/25 04:59:05;;;;;;;12.30;6.90;;;20.00;99.90;;;;;;3058079;19;20006;-71
2022/08/25 05:00:11;;;;;;;11.90;6.60;;;19.90;99.90;;;;;;3058617;19;20003;-71
2022/08/25 05:01:18;;;;;;;11.10;6.60;;;19.90;99.90;;;;;;3058396;19;20081;-72
2022/08/25 05:02:23;;;;;;;13.95;7.35;;;19.90;99.90;;;;;;3058482;19;20107;-72
2022/08/25 05:03:25;;;;;;;9.15;6.95;;;20.00;99.90;;;;;;3058263;19;20547;-71
2022/08/25 05:04:28;;;;;;;9.25;6.65;;;20.00;99.90;;;;;;3058486;19;20764;-71
2022/08/25 05:05:30;;;;;;;11.23;6.78;;;20.00;99.90;;;;;;3058282;19;20480;-72
2022/08/25 05:06:35;;;;;;;10.52;6.28;;;20.10;99.90;;;;;;3058362;19;20001;-72
2022/08/25 05:07:36;;;;;;;10.52;6.95;;;20.10;99.90;;;;;;3058207;19;20693;-72
2022/08/25 05:08:41;;;;;;;9.95;6.90;;;20.10;99.90;;;;;;3059856;19;20018;-72
2022/08/25 05:09:42;;;;;;;10.45;6.68;;;20.00;99.90;;;;;;3058328;19;20017;-72
2022/08/25 05:10:46;;;;;;;12.00;6.63;;;20.00;99.90;;;;;;3058347;19;20002;-72
2022/08/25 05:11:48;;;;;;;11.63;7.22;;;19.90;99.90;;;;;;3058399;19;20018;-72
2022/08/25 05:12:52;;;;;;;16.92;7.18;;;20.00;99.90;;;;;;3057795;19;20022;-72
2022/08/25 05:13:55;;;;;;;11.27;7.53;;;20.00;99.90;;;;;;3058176;19;20014;-71
2022/08/25 05:15:48;;;;;;;11.73;6.40;;;20.00;99.90;;;;;;3058710;19;20406;-72
2022/08/25 05:16:25;;;;;;;9.95;7.03;;;20.00;99.90;;;;;;3058239;19;20015;-72
2022/08/25 05:17:29;;;;;;;11.25;6.60;;;20.10;99.90;;;;;;3058200;19;20014;-72
2022/08/25 05:18:31;;;;;;;12.30;7.50;;;19.90;99.90;;;;;;3058222;19;20368;-72
2022/08/25 05:19:35;;;;;;;11.00;7.25;;;19.80;99.90;;;;;;3057338;19;20361;-72
2022/08/25 05:20:37;;;;;;;12.55;6.85;;;19.90;99.90;;;;;;3058108;19;20035;-73
2022/08/25 05:21:41;;;;;;;12.48;6.85;;;20.10;99.90;;;;;;3058513;19;20040;-72
2022/08/25 05:22:45;;;;;;;12.00;7.85;;;20.00;99.90;;;;;;3058071;19;20006;-72
2022/08/25 05:23:49;;;;;;;11.65;7.15;;;20.10;99.90;;;;;;3058382;19;20041;-73
2022/08/25 05:24:53;;;;;;;10.80;7.22;;;19.90;99.90;;;;;;3058229;19;20010;-72
2022/08/25 05:25:55;;;;;;;8.77;6.47;;;20.10;99.90;;;;;;3058125;19;20111;-72
2022/08/25 05:27:00;;;;;;;13.10;7.75;;;19.80;99.90;;;;;;3057820;19;20079;-72
2022/08/25 05:28:02;;;;;;;11.75;7.00;;;20.10;99.90;;;;;;3057878;19;20433;-71
2022/08/25 05:29:09;;;;;;;11.38;7.43;;;20.00;99.90;;;;;;3058224;19;20011;-72
2022/08/25 05:30:11;;;;;;;16.48;7.38;;;19.90;99.90;;;;;;3058144;19;20497;-72
2022/08/25 05:31:16;;;;;;;;;;;19.80;99.90;;;;;;3059070;19;20006;-72
2022/08/25 05:32:20;;;;;;;12.98;7.32;;;20.10;99.90;;;;;;3058078;19;20363;-72
2022/08/25 05:33:23;;;;;;;10.85;7.22;;;20.10;99.90;;;;;;3058161;19;20015;-72
2022/08/25 05:34:25;;;;;;;9.95;6.95;;;20.10;99.90;;;;;;3057960;19;20003;-71